sensor_id;sensor_type;location;lat;lon;timestamp;P1;durP1;ratioP1;P2;durP2;ratioP2
80400;SDS011;69727;53.132;8.230;2023-07-02T00:00:58;6.30;;;2.75;;
80400;SDS011;69727;53.132;8.230;2023-07-02T00:04:22;7.10;;;2.83;;
80400;SDS011;69727;53.132;8.230;2023-07-02T00:07:46;5.50;;;2.50;;
80400;SDS011;69727;53.132;8.230;2023-07-02T00:11:10;6.28;;;2.58;;
80400;SDS011;69727;53.132;8.230;2023-07-02T00:14:34;8.60;;;3.25;;
80400;SDS011;69727;53.132;8.230;2023-07-02T00:17:58;5.70;;;2.70;;
80400;SDS011;69727;53.132;8.230;2023-07-02T00:21:24;9.20;;;3.10;;
80400;SDS011;69727;53.132;8.230;2023-07-02T00:24:49;5.68;;;2.80;;
80400;SDS011;69727;53.132;8.230;2023-07-02T00:28:13;5.75;;;3.00;;
80400;SDS011;69727;53.132;8.230;2023-07-02T00:31:37;5.50;;;2.40;;
80400;SDS011;69727;53.132;8.230;2023-07-02T00:35:01;5.55;;;2.78;;
80400;SDS011;69727;53.132;8.230;2023-07-02T00:38:25;6.97;;;2.75;;
80400;SDS011;69727;53.132;8.230;2023-07-02T00:41:49;6.30;;;3.00;;
80400;SDS011;69727;53.132;8.230;2023-07-02T00:45:13;5.20;;;2.35;;
80400;SDS011;69727;53.132;8.230;2023-07-02T00:48:43;5.78;;;2.90;;
80400;SDS011;69727;53.132;8.230;2023-07-02T00:52:07;6.70;;;2.80;;
80400;SDS011;69727;53.132;8.230;2023-07-02T00:55:31;4.80;;;2.60;;
80400;SDS011;69727;53.132;8.230;2023-07-02T00:58:55;7.55;;;3.45;;
80400;SDS011;69727;53.132;8.230;2023-07-02T01:02:19;6.35;;;2.60;;
80400;SDS011;69727;53.132;8.230;2023-07-02T01:05:43;7.90;;;2.97;;
80400;SDS011;69727;53.132;8.230;2023-07-02T01:09:09;9.30;;;3.15;;
80400;SDS011;69727;53.132;8.230;2023-07-02T01:12:34;9.57;;;3.38;;
80400;SDS011;69727;53.132;8.230;2023-07-02T01:15:58;7.05;;;3.03;;
80400;SDS011;69727;53.132;8.230;2023-07-02T01:22:55;7.90;;;3.65;;
80400;SDS011;69727;53.132;8.230;2023-07-02T01:26:20;7.57;;;3.20;;
80400;SDS011;69727;53.132;8.230;2023-07-02T01:29:44;9.55;;;3.42;;
80400;SDS011;69727;53.132;8.230;2023-07-02T01:33:08;6.43;;;3.00;;
80400;SDS011;69727;53.132;8.230;2023-07-02T01:36:33;9.00;;;3.13;;
80400;SDS011;69727;53.132;8.230;2023-07-02T01:40:02;10.73;;;3.83;;
80400;SDS011;69727;53.132;8.230;2023-07-02T01:43:26;11.80;;;3.28;;
80400;SDS011;69727;53.132;8.230;2023-07-02T01:46:50;7.18;;;3.30;;
80400;SDS011;69727;53.132;8.230;2023-07-02T01:50:14;10.40;;;3.83;;
80400;SDS011;69727;53.132;8.230;2023-07-02T01:53:38;11.95;;;4.13;;
80400;SDS011;69727;53.132;8.230;2023-07-02T01:57:02;8.05;;;3.55;;
80400;SDS011;69727;53.132;8.230;2023-07-02T02:00:26;10.02;;;3.65;;
80400;SDS011;69727;53.132;8.230;2023-07-02T02:03:50;10.52;;;3.25;;
80400;SDS011;69727;53.132;8.230;2023-07-02T02:07:14;9.75;;;3.75;;
80400;SDS011;69727;53.132;8.230;2023-07-02T02:10:38;10.88;;;3.88;;
80400;SDS011;69727;53.132;8.230;2023-07-02T02:14:06;8.25;;;3.28;;
80400;SDS011;69727;53.132;8.230;2023-07-02T02:17:31;12.00;;;3.90;;
80400;SDS011;69727;53.132;8.230;2023-07-02T02:20:55;11.85;;;4.13;;
80400;SDS011;69727;53.132;8.230;2023-07-02T02:24:19;10.57;;;4.10;;
80400;SDS011;69727;53.132;8.230;2023-07-02T02:27:43;11.32;;;4.13;;
80400;SDS011;69727;53.132;8.230;2023-07-02T02:31:07;9.15;;;3.60;;
80400;SDS011;69727;53.132;8.230;2023-07-02T02:34:31;11.75;;;4.07;;
80400;SDS011;69727;53.132;8.230;2023-07-02T02:37:55;10.50;;;4.60;;
80400;SDS011;69727;53.132;8.230;2023-07-02T02:41:19;12.00;;;3.95;;
80400;SDS011;69727;53.132;8.230;2023-07-02T02:44:43;13.18;;;4.18;;
80400;SDS011;69727;53.132;8.230;2023-07-02T02:48:07;16.20;;;4.88;;
80400;SDS011;69727;53.132;8.230;2023-07-02T02:51:31;8.80;;;3.75;;
80400;SDS011;69727;53.132;8.230;2023-07-02T02:54:54;11.70;;;4.28;;
80400;SDS011;69727;53.132;8.230;2023-07-02T02:58:18;12.85;;;4.47;;
80400;SDS011;69727;53.132;8.230;2023-07-02T03:01:42;11.48;;;4.78;;
80400;SDS011;69727;53.132;8.230;2023-07-02T03:05:06;14.00;;;4.55;;
80400;SDS011;69727;53.132;8.230;2023-07-02T03:08:30;13.20;;;4.13;;
80400;SDS011;69727;53.132;8.230;2023-07-02T03:11:54;16.67;;;4.20;;
80400;SDS011;69727;53.132;8.230;2023-07-02T03:15:21;12.82;;;5.28;;
80400;SDS011;69727;53.132;8.230;2023-07-02T03:18:46;14.30;;;4.88;;
80400;SDS011;69727;53.132;8.230;2023-07-02T03:22:10;15.90;;;5.05;;
80400;SDS011;69727;53.132;8.230;2023-07-02T03:25:34;10.55;;;4.53;;
80400;SDS011;69727;53.132;8.230;2023-07-02T03:28:58;15.77;;;5.68;;
80400;SDS011;69727;53.132;8.230;2023-07-02T03:32:23;16.00;;;5.07;;
80400;SDS011;69727;53.132;8.230;2023-07-02T03:35:47;11.85;;;4.05;;
80400;SDS011;69727;53.132;8.230;2023-07-02T03:39:11;18.85;;;5.35;;
80400;SDS011;69727;53.132;8.230;2023-07-02T03:42:35;15.23;;;4.57;;
80400;SDS011;69727;53.132;8.230;2023-07-02T03:45:59;16.48;;;5.18;;
80400;SDS011;69727;53.132;8.230;2023-07-02T03:49:23;11.38;;;4.70;;
80400;SDS011;69727;53.132;8.230;2023-07-02T03:52:47;15.00;;;5.07;;
80400;SDS011;69727;53.132;8.230;2023-07-02T03:56:11;16.08;;;4.80;;
80400;SDS011;69727;53.132;8.230;2023-07-02T03:59:35;12.32;;;4.30;;
80400;SDS011;69727;53.132;8.230;2023-07-02T04:02:59;11.98;;;5.25;;
80400;SDS011;69727;53.132;8.230;2023-07-02T04:06:23;16.73;;;6.05;;
80400;SDS011;69727;53.132;8.230;2023-07-02T04:09:47;17.13;;;5.07;;
80400;SDS011;69727;53.132;8.230;2023-07-02T04:13:11;27.40;;;6.32;;
80400;SDS011;69727;53.132;8.230;2023-07-02T04:16:35;16.58;;;5.57;;
80400;SDS011;69727;53.132;8.230;2023-07-02T04:19:59;15.82;;;5.53;;
80400;SDS011;69727;53.132;8.230;2023-07-02T04:23:24;14.75;;;5.05;;
80400;SDS011;69727;53.132;8.230;2023-07-02T04:26:48;15.98;;;5.40;;
80400;SDS011;69727;53.132;8.230;2023-07-02T04:30:12;15.38;;;5.43;;
80400;SDS011;69727;53.132;8.230;2023-07-02T04:33:36;15.55;;;5.22;;
80400;SDS011;69727;53.132;8.230;2023-07-02T04:37:01;15.05;;;4.93;;
80400;SDS011;69727;53.132;8.230;2023-07-02T04:40:26;22.25;;;6.30;;
80400;SDS011;69727;53.132;8.230;2023-07-02T04:43:50;19.20;;;5.80;;
80400;SDS011;69727;53.132;8.230;2023-07-02T04:47:14;15.95;;;5.57;;
80400;SDS011;69727;53.132;8.230;2023-07-02T04:50:38;21.48;;;5.68;;
80400;SDS011;69727;53.132;8.230;2023-07-02T04:54:02;15.65;;;5.72;;
80400;SDS011;69727;53.132;8.230;2023-07-02T04:57:27;21.15;;;5.82;;
80400;SDS011;69727;53.132;8.230;2023-07-02T05:00:52;16.92;;;5.25;;
80400;SDS011;69727;53.132;8.230;2023-07-02T05:04:15;17.10;;;6.15;;
80400;SDS011;69727;53.132;8.230;2023-07-02T05:07:40;17.83;;;5.15;;
80400;SDS011;69727;53.132;8.230;2023-07-02T05:11:04;28.80;;;6.25;;
80400;SDS011;69727;53.132;8.230;2023-07-02T05:14:28;17.73;;;5.72;;
80400;SDS011;69727;53.132;8.230;2023-07-02T05:17:52;20.63;;;5.90;;
80400;SDS011;69727;53.132;8.230;2023-07-02T05:21:19;20.27;;;5.32;;
80400;SDS011;69727;53.132;8.230;2023-07-02T05:24:43;14.82;;;5.25;;
80400;SDS011;69727;53.132;8.230;2023-07-02T05:28:07;18.23;;;6.38;;
80400;SDS011;69727;53.132;8.230;2023-07-02T05:31:31;15.77;;;5.40;;
80400;SDS011;69727;53.132;8.230;2023-07-02T05:34:55;18.77;;;5.93;;
80400;SDS011;69727;53.132;8.230;2023-07-02T05:38:19;19.17;;;5.53;;
80400;SDS011;69727;53.132;8.230;2023-07-02T05:41:43;23.30;;;5.82;;
80400;SDS011;69727;53.132;8.230;2023-07-02T05:45:08;16.90;;;5.60;;
80400;SDS011;69727;53.132;8.230;2023-07-02T05:48:32;19.05;;;5.47;;
80400;SDS011;69727;53.132;8.230;2023-07-02T05:51:55;19.25;;;6.40;;
80400;SDS011;69727;53.132;8.230;2023-07-02T05:55:19;17.58;;;5.15;;
80400;SDS011;69727;53.132;8.230;2023-07-02T05:58:45;16.95;;;5.55;;
80400;SDS011;69727;53.132;8.230;2023-07-02T06:02:08;21.55;;;5.45;;
80400;SDS011;69727;53.132;8.230;2023-07-02T06:05:33;12.68;;;5.10;;
80400;SDS011;69727;53.132;8.230;2023-07-02T06:08:56;11.15;;;4.95;;
80400;SDS011;69727;53.132;8.230;2023-07-02T06:12:21;17.13;;;5.78;;
80400;SDS011;69727;53.132;8.230;2023-07-02T06:15:45;20.65;;;5.70;;
80400;SDS011;69727;53.132;8.230;2023-07-02T06:19:09;15.48;;;5.43;;
80400;SDS011;69727;53.132;8.230;2023-07-02T06:22:33;18.88;;;6.00;;
80400;SDS011;69727;53.132;8.230;2023-07-02T06:26:09;15.68;;;5.30;;
80400;SDS011;69727;53.132;8.230;2023-07-02T06:29:33;16.30;;;5.60;;
80400;SDS011;69727;53.132;8.230;2023-07-02T06:32:57;18.58;;;5.65;;
80400;SDS011;69727;53.132;8.230;2023-07-02T06:36:21;17.85;;;5.88;;
80400;SDS011;69727;53.132;8.230;2023-07-02T06:39:45;17.67;;;5.93;;
80400;SDS011;69727;53.132;8.230;2023-07-02T06:43:09;18.58;;;5.78;;
80400;SDS011;69727;53.132;8.230;2023-07-02T06:46:33;19.58;;;5.72;;
80400;SDS011;69727;53.132;8.230;2023-07-02T06:49:56;14.82;;;5.15;;
80400;SDS011;69727;53.132;8.230;2023-07-02T06:53:20;19.00;;;5.72;;
80400;SDS011;69727;53.132;8.230;2023-07-02T06:56:44;14.00;;;5.28;;
80400;SDS011;69727;53.132;8.230;2023-07-02T07:00:12;13.25;;;4.45;;
80400;SDS011;69727;53.132;8.230;2023-07-02T07:03:36;13.48;;;4.25;;
80400;SDS011;69727;53.132;8.230;2023-07-02T07:07:00;11.43;;;4.32;;
80400;SDS011;69727;53.132;8.230;2023-07-02T07:10:25;13.18;;;4.03;;
80400;SDS011;69727;53.132;8.230;2023-07-02T07:13:49;12.98;;;5.63;;
80400;SDS011;69727;53.132;8.230;2023-07-02T07:17:13;13.93;;;4.65;;
80400;SDS011;69727;53.132;8.230;2023-07-02T07:20:38;9.88;;;4.32;;
80400;SDS011;69727;53.132;8.230;2023-07-02T07:24:02;20.95;;;4.70;;
80400;SDS011;69727;53.132;8.230;2023-07-02T07:27:26;16.13;;;5.07;;
80400;SDS011;69727;53.132;8.230;2023-07-02T07:30:50;13.63;;;5.25;;
80400;SDS011;69727;53.132;8.230;2023-07-02T07:34:14;13.73;;;4.80;;
80400;SDS011;69727;53.132;8.230;2023-07-02T07:37:38;16.15;;;4.88;;
80400;SDS011;69727;53.132;8.230;2023-07-02T07:41:02;13.25;;;4.63;;
80400;SDS011;69727;53.132;8.230;2023-07-02T07:44:25;11.80;;;4.30;;
80400;SDS011;69727;53.132;8.230;2023-07-02T07:47:49;12.88;;;4.70;;
80400;SDS011;69727;53.132;8.230;2023-07-02T07:51:13;11.52;;;3.92;;
80400;SDS011;69727;53.132;8.230;2023-07-02T07:54:37;20.30;;;5.10;;
80400;SDS011;69727;53.132;8.230;2023-07-02T07:58:01;14.68;;;5.15;;
80400;SDS011;69727;53.132;8.230;2023-07-02T08:01:25;13.75;;;4.57;;
80400;SDS011;69727;53.132;8.230;2023-07-02T08:04:50;13.35;;;4.40;;
80400;SDS011;69727;53.132;8.230;2023-07-02T08:08:13;12.68;;;4.18;;
80400;SDS011;69727;53.132;8.230;2023-07-02T08:11:37;10.07;;;4.10;;
80400;SDS011;69727;53.132;8.230;2023-07-02T08:15:01;13.77;;;4.53;;
80400;SDS011;69727;53.132;8.230;2023-07-02T08:18:28;15.98;;;4.15;;
80400;SDS011;69727;53.132;8.230;2023-07-02T08:21:52;12.65;;;4.00;;
80400;SDS011;69727;53.132;8.230;2023-07-02T08:25:17;10.80;;;3.85;;
80400;SDS011;69727;53.132;8.230;2023-07-02T08:28:41;9.10;;;3.33;;
80400;SDS011;69727;53.132;8.230;2023-07-02T08:32:04;12.23;;;3.83;;
80400;SDS011;69727;53.132;8.230;2023-07-02T08:35:29;12.35;;;4.20;;
80400;SDS011;69727;53.132;8.230;2023-07-02T08:38:53;10.88;;;4.05;;
80400;SDS011;69727;53.132;8.230;2023-07-02T08:42:16;10.70;;;4.47;;
80400;SDS011;69727;53.132;8.230;2023-07-02T08:45:41;11.50;;;3.90;;
80400;SDS011;69727;53.132;8.230;2023-07-02T08:49:06;12.80;;;4.13;;
80400;SDS011;69727;53.132;8.230;2023-07-02T08:52:31;14.70;;;4.20;;
80400;SDS011;69727;53.132;8.230;2023-07-02T08:55:55;14.65;;;4.97;;
80400;SDS011;69727;53.132;8.230;2023-07-02T08:59:19;14.15;;;4.25;;
80400;SDS011;69727;53.132;8.230;2023-07-02T09:02:43;11.15;;;4.38;;
80400;SDS011;69727;53.132;8.230;2023-07-02T09:06:08;16.38;;;5.00;;
80400;SDS011;69727;53.132;8.230;2023-07-02T09:09:33;13.13;;;4.47;;
80400;SDS011;69727;53.132;8.230;2023-07-02T09:13:07;11.10;;;4.20;;
80400;SDS011;69727;53.132;8.230;2023-07-02T09:16:32;14.75;;;4.47;;
80400;SDS011;69727;53.132;8.230;2023-07-02T09:20:00;13.80;;;4.07;;
80400;SDS011;69727;53.132;8.230;2023-07-02T09:23:36;14.43;;;4.47;;
80400;SDS011;69727;53.132;8.230;2023-07-02T09:27:01;12.07;;;3.95;;
80400;SDS011;69727;53.132;8.230;2023-07-02T09:30:25;10.07;;;3.00;;
80400;SDS011;69727;53.132;8.230;2023-07-02T09:33:49;8.90;;;3.15;;
80400;SDS011;69727;53.132;8.230;2023-07-02T09:37:13;10.98;;;3.92;;
80400;SDS011;69727;53.132;8.230;2023-07-02T09:40:41;10.43;;;2.88;;
80400;SDS011;69727;53.132;8.230;2023-07-02T09:44:09;11.68;;;2.90;;
80400;SDS011;69727;53.132;8.230;2023-07-02T09:47:34;8.73;;;2.40;;
80400;SDS011;69727;53.132;8.230;2023-07-02T09:51:00;7.22;;;2.40;;
80400;SDS011;69727;53.132;8.230;2023-07-02T09:54:25;7.18;;;2.10;;
80400;SDS011;69727;53.132;8.230;2023-07-02T09:57:49;7.88;;;2.45;;
80400;SDS011;69727;53.132;8.230;2023-07-02T10:01:14;7.05;;;2.55;;
80400;SDS011;69727;53.132;8.230;2023-07-02T10:08:13;6.68;;;2.40;;
80400;SDS011;69727;53.132;8.230;2023-07-02T10:11:37;6.70;;;2.17;;
80400;SDS011;69727;53.132;8.230;2023-07-02T10:15:10;7.50;;;2.35;;
80400;SDS011;69727;53.132;8.230;2023-07-02T10:18:34;7.55;;;1.90;;
80400;SDS011;69727;53.132;8.230;2023-07-02T10:22:01;5.95;;;2.10;;
80400;SDS011;69727;53.132;8.230;2023-07-02T10:25:27;8.20;;;2.50;;
80400;SDS011;69727;53.132;8.230;2023-07-02T10:28:58;7.70;;;2.47;;
80400;SDS011;69727;53.132;8.230;2023-07-02T10:35:49;8.20;;;2.45;;
80400;SDS011;69727;53.132;8.230;2023-07-02T10:39:18;8.07;;;3.03;;
80400;SDS011;69727;53.132;8.230;2023-07-02T10:42:49;9.07;;;2.88;;
80400;SDS011;69727;53.132;8.230;2023-07-02T10:46:18;8.05;;;2.40;;
80400;SDS011;69727;53.132;8.230;2023-07-02T10:49:42;7.22;;;2.50;;
80400;SDS011;69727;53.132;8.230;2023-07-02T10:53:06;7.72;;;2.63;;
80400;SDS011;69727;53.132;8.230;2023-07-02T10:56:30;8.60;;;2.58;;
80400;SDS011;69727;53.132;8.230;2023-07-02T11:00:03;8.88;;;2.30;;
80400;SDS011;69727;53.132;8.230;2023-07-02T11:03:27;8.23;;;2.13;;
80400;SDS011;69727;53.132;8.230;2023-07-02T11:06:51;8.40;;;2.88;;
80400;SDS011;69727;53.132;8.230;2023-07-02T11:10:22;8.32;;;3.33;;
80400;SDS011;69727;53.132;8.230;2023-07-02T11:13:48;8.18;;;3.13;;
80400;SDS011;69727;53.132;8.230;2023-07-02T11:17:12;6.90;;;2.60;;
80400;SDS011;69727;53.132;8.230;2023-07-02T11:20:43;8.50;;;2.85;;
80400;SDS011;69727;53.132;8.230;2023-07-02T11:24:15;8.50;;;2.67;;
80400;SDS011;69727;53.132;8.230;2023-07-02T11:27:45;7.70;;;2.70;;
80400;SDS011;69727;53.132;8.230;2023-07-02T11:31:14;9.68;;;3.35;;
80400;SDS011;69727;53.132;8.230;2023-07-02T11:34:39;9.13;;;2.80;;
80400;SDS011;69727;53.132;8.230;2023-07-02T11:38:03;10.40;;;3.05;;
80400;SDS011;69727;53.132;8.230;2023-07-02T11:41:35;7.78;;;3.15;;
80400;SDS011;69727;53.132;8.230;2023-07-02T11:44:59;7.18;;;2.60;;
80400;SDS011;69727;53.132;8.230;2023-07-02T11:48:36;9.57;;;2.58;;
80400;SDS011;69727;53.132;8.230;2023-07-02T11:51:59;9.75;;;2.80;;
80400;SDS011;69727;53.132;8.230;2023-07-02T11:55:23;6.75;;;2.50;;
80400;SDS011;69727;53.132;8.230;2023-07-02T11:58:47;7.35;;;2.65;;
80400;SDS011;69727;53.132;8.230;2023-07-02T12:02:12;9.05;;;2.55;;
80400;SDS011;69727;53.132;8.230;2023-07-02T12:05:56;9.23;;;2.70;;
80400;SDS011;69727;53.132;8.230;2023-07-02T12:09:32;11.57;;;3.38;;
80400;SDS011;69727;53.132;8.230;2023-07-02T12:12:58;11.23;;;3.28;;
80400;SDS011;69727;53.132;8.230;2023-07-02T12:16:22;6.85;;;3.10;;
80400;SDS011;69727;53.132;8.230;2023-07-02T12:19:49;8.18;;;3.03;;
80400;SDS011;69727;53.132;8.230;2023-07-02T12:23:13;9.43;;;3.03;;
80400;SDS011;69727;53.132;8.230;2023-07-02T12:26:37;7.30;;;2.80;;
80400;SDS011;69727;53.132;8.230;2023-07-02T12:30:03;8.13;;;2.95;;
80400;SDS011;69727;53.132;8.230;2023-07-02T12:33:28;12.43;;;3.35;;
80400;SDS011;69727;53.132;8.230;2023-07-02T12:36:54;6.53;;;2.53;;
80400;SDS011;69727;53.132;8.230;2023-07-02T12:40:20;10.55;;;3.00;;
80400;SDS011;69727;53.132;8.230;2023-07-02T12:43:47;11.20;;;3.17;;
80400;SDS011;69727;53.132;8.230;2023-07-02T12:47:14;7.13;;;2.90;;
80400;SDS011;69727;53.132;8.230;2023-07-02T12:50:38;6.88;;;2.55;;
80400;SDS011;69727;53.132;8.230;2023-07-02T12:54:02;9.57;;;2.60;;
80400;SDS011;69727;53.132;8.230;2023-07-02T12:57:27;11.40;;;3.40;;
80400;SDS011;69727;53.132;8.230;2023-07-02T13:00:53;6.90;;;2.72;;
80400;SDS011;69727;53.132;8.230;2023-07-02T13:04:17;7.30;;;2.50;;
80400;SDS011;69727;53.132;8.230;2023-07-02T13:07:41;8.48;;;2.72;;
80400;SDS011;69727;53.132;8.230;2023-07-02T13:11:12;9.23;;;2.47;;
80400;SDS011;69727;53.132;8.230;2023-07-02T13:14:37;10.65;;;3.00;;
80400;SDS011;69727;53.132;8.230;2023-07-02T13:18:01;10.38;;;3.13;;
80400;SDS011;69727;53.132;8.230;2023-07-02T13:21:26;7.25;;;2.78;;
80400;SDS011;69727;53.132;8.230;2023-07-02T13:24:50;5.93;;;2.50;;
80400;SDS011;69727;53.132;8.230;2023-07-02T13:28:23;9.82;;;2.80;;
80400;SDS011;69727;53.132;8.230;2023-07-02T13:31:47;6.10;;;2.35;;
80400;SDS011;69727;53.132;8.230;2023-07-02T13:35:13;10.10;;;2.65;;
80400;SDS011;69727;53.132;8.230;2023-07-02T13:38:37;8.90;;;2.53;;
80400;SDS011;69727;53.132;8.230;2023-07-02T13:42:01;8.98;;;3.13;;
80400;SDS011;69727;53.132;8.230;2023-07-02T13:45:25;8.00;;;2.50;;
80400;SDS011;69727;53.132;8.230;2023-07-02T13:48:52;6.25;;;2.28;;
80400;SDS011;69727;53.132;8.230;2023-07-02T13:52:17;8.85;;;2.60;;
80400;SDS011;69727;53.132;8.230;2023-07-02T13:55:41;9.35;;;2.53;;
80400;SDS011;69727;53.132;8.230;2023-07-02T13:59:05;10.00;;;2.50;;
80400;SDS011;69727;53.132;8.230;2023-07-02T14:02:44;10.75;;;3.22;;
80400;SDS011;69727;53.132;8.230;2023-07-02T14:06:12;7.57;;;2.25;;
80400;SDS011;69727;53.132;8.230;2023-07-02T14:09:36;7.68;;;2.53;;
80400;SDS011;69727;53.132;8.230;2023-07-02T14:13:00;7.55;;;2.25;;
80400;SDS011;69727;53.132;8.230;2023-07-02T14:16:24;6.03;;;2.08;;
80400;SDS011;69727;53.132;8.230;2023-07-02T14:19:53;12.27;;;2.65;;
80400;SDS011;69727;53.132;8.230;2023-07-02T14:23:17;8.25;;;2.47;;
80400;SDS011;69727;53.132;8.230;2023-07-02T14:26:44;6.78;;;2.42;;
80400;SDS011;69727;53.132;8.230;2023-07-02T14:30:08;6.55;;;2.50;;
80400;SDS011;69727;53.132;8.230;2023-07-02T14:33:34;8.32;;;2.53;;
80400;SDS011;69727;53.132;8.230;2023-07-02T14:36:58;7.18;;;2.17;;
80400;SDS011;69727;53.132;8.230;2023-07-02T14:40:23;7.63;;;2.30;;
80400;SDS011;69727;53.132;8.230;2023-07-02T14:43:47;7.75;;;2.10;;
80400;SDS011;69727;53.132;8.230;2023-07-02T14:47:11;7.50;;;3.00;;
80400;SDS011;69727;53.132;8.230;2023-07-02T14:50:41;11.43;;;2.90;;
80400;SDS011;69727;53.132;8.230;2023-07-02T14:54:05;8.95;;;2.65;;
80400;SDS011;69727;53.132;8.230;2023-07-02T14:57:29;8.82;;;2.60;;
80400;SDS011;69727;53.132;8.230;2023-07-02T15:00:55;9.20;;;2.53;;
80400;SDS011;69727;53.132;8.230;2023-07-02T15:04:19;7.63;;;2.55;;
80400;SDS011;69727;53.132;8.230;2023-07-02T15:07:43;9.27;;;2.53;;
80400;SDS011;69727;53.132;8.230;2023-07-02T15:11:08;8.50;;;2.33;;
80400;SDS011;69727;53.132;8.230;2023-07-02T15:14:32;7.78;;;2.33;;
80400;SDS011;69727;53.132;8.230;2023-07-02T15:17:56;10.13;;;3.00;;
80400;SDS011;69727;53.132;8.230;2023-07-02T15:21:20;8.77;;;2.88;;
80400;SDS011;69727;53.132;8.230;2023-07-02T15:24:44;10.77;;;2.65;;
80400;SDS011;69727;53.132;8.230;2023-07-02T15:28:08;7.28;;;2.63;;
80400;SDS011;69727;53.132;8.230;2023-07-02T15:31:32;11.23;;;3.08;;
80400;SDS011;69727;53.132;8.230;2023-07-02T15:35:10;7.03;;;2.53;;
80400;SDS011;69727;53.132;8.230;2023-07-02T15:38:44;9.43;;;2.95;;
80400;SDS011;69727;53.132;8.230;2023-07-02T15:42:08;7.65;;;2.85;;
80400;SDS011;69727;53.132;8.230;2023-07-02T15:45:32;12.02;;;2.95;;
80400;SDS011;69727;53.132;8.230;2023-07-02T15:48:57;9.13;;;2.55;;
80400;SDS011;69727;53.132;8.230;2023-07-02T15:52:22;9.40;;;3.40;;
80400;SDS011;69727;53.132;8.230;2023-07-02T15:55:53;9.57;;;2.65;;
80400;SDS011;69727;53.132;8.230;2023-07-02T15:59:17;11.70;;;3.38;;
80400;SDS011;69727;53.132;8.230;2023-07-02T16:02:41;9.45;;;2.92;;
80400;SDS011;69727;53.132;8.230;2023-07-02T16:06:06;10.27;;;3.13;;
80400;SDS011;69727;53.132;8.230;2023-07-02T16:09:31;8.02;;;3.28;;
80400;SDS011;69727;53.132;8.230;2023-07-02T16:12:56;11.95;;;3.25;;
80400;SDS011;69727;53.132;8.230;2023-07-02T16:16:24;11.10;;;3.40;;
80400;SDS011;69727;53.132;8.230;2023-07-02T16:19:48;11.27;;;3.72;;
80400;SDS011;69727;53.132;8.230;2023-07-02T16:23:22;8.70;;;4.13;;
80400;SDS011;69727;53.132;8.230;2023-07-02T16:26:50;12.48;;;3.70;;
80400;SDS011;69727;53.132;8.230;2023-07-02T16:30:14;14.85;;;3.70;;
80400;SDS011;69727;53.132;8.230;2023-07-02T16:33:38;11.02;;;3.83;;
80400;SDS011;69727;53.132;8.230;2023-07-02T16:37:02;9.23;;;3.38;;
80400;SDS011;69727;53.132;8.230;2023-07-02T16:40:27;7.78;;;2.97;;
80400;SDS011;69727;53.132;8.230;2023-07-02T16:43:51;9.18;;;3.67;;
80400;SDS011;69727;53.132;8.230;2023-07-02T16:47:15;9.15;;;3.78;;
80400;SDS011;69727;53.132;8.230;2023-07-02T16:50:38;11.80;;;3.40;;
80400;SDS011;69727;53.132;8.230;2023-07-02T16:54:07;9.30;;;3.58;;
80400;SDS011;69727;53.132;8.230;2023-07-02T16:57:31;8.65;;;3.70;;
80400;SDS011;69727;53.132;8.230;2023-07-02T17:01:00;9.82;;;3.53;;
80400;SDS011;69727;53.132;8.230;2023-07-02T17:04:24;7.75;;;3.55;;
80400;SDS011;69727;53.132;8.230;2023-07-02T17:07:53;10.27;;;4.15;;
80400;SDS011;69727;53.132;8.230;2023-07-02T17:11:37;9.05;;;3.85;;
80400;SDS011;69727;53.132;8.230;2023-07-02T17:15:00;10.52;;;3.63;;
80400;SDS011;69727;53.132;8.230;2023-07-02T17:18:25;8.60;;;3.75;;
80400;SDS011;69727;53.132;8.230;2023-07-02T17:21:50;7.95;;;3.30;;
80400;SDS011;69727;53.132;8.230;2023-07-02T17:25:14;7.60;;;3.13;;
80400;SDS011;69727;53.132;8.230;2023-07-02T17:29:05;9.75;;;2.95;;
80400;SDS011;69727;53.132;8.230;2023-07-02T17:32:35;8.30;;;2.95;;
80400;SDS011;69727;53.132;8.230;2023-07-02T17:35:59;8.98;;;3.42;;
80400;SDS011;69727;53.132;8.230;2023-07-02T17:39:48;8.88;;;3.05;;
80400;SDS011;69727;53.132;8.230;2023-07-02T17:43:12;10.45;;;3.55;;
80400;SDS011;69727;53.132;8.230;2023-07-02T17:46:43;8.90;;;3.25;;
80400;SDS011;69727;53.132;8.230;2023-07-02T17:50:08;6.78;;;3.38;;
80400;SDS011;69727;53.132;8.230;2023-07-02T17:53:35;8.38;;;2.90;;
80400;SDS011;69727;53.132;8.230;2023-07-02T17:57:17;8.20;;;3.30;;
80400;SDS011;69727;53.132;8.230;2023-07-02T18:00:50;8.07;;;2.78;;
80400;SDS011;69727;53.132;8.230;2023-07-02T18:04:17;10.32;;;3.15;;
80400;SDS011;69727;53.132;8.230;2023-07-02T18:07:44;7.90;;;2.85;;
80400;SDS011;69727;53.132;8.230;2023-07-02T18:11:09;8.00;;;2.90;;
80400;SDS011;69727;53.132;8.230;2023-07-02T18:14:34;7.25;;;3.00;;
80400;SDS011;69727;53.132;8.230;2023-07-02T18:18:01;9.48;;;3.10;;
80400;SDS011;69727;53.132;8.230;2023-07-02T18:21:25;10.88;;;3.05;;
80400;SDS011;69727;53.132;8.230;2023-07-02T18:24:55;10.77;;;3.40;;
80400;SDS011;69727;53.132;8.230;2023-07-02T18:28:20;9.13;;;3.00;;
80400;SDS011;69727;53.132;8.230;2023-07-02T18:31:45;8.45;;;2.95;;
80400;SDS011;69727;53.132;8.230;2023-07-02T18:35:09;8.43;;;2.92;;
80400;SDS011;69727;53.132;8.230;2023-07-02T18:38:34;7.28;;;3.00;;
80400;SDS011;69727;53.132;8.230;2023-07-02T18:42:04;8.70;;;2.90;;
80400;SDS011;69727;53.132;8.230;2023-07-02T18:45:28;10.20;;;2.78;;
80400;SDS011;69727;53.132;8.230;2023-07-02T18:48:54;10.18;;;3.60;;
80400;SDS011;69727;53.132;8.230;2023-07-02T18:52:19;7.07;;;2.63;;
80400;SDS011;69727;53.132;8.230;2023-07-02T18:55:57;9.05;;;3.00;;
80400;SDS011;69727;53.132;8.230;2023-07-02T18:59:47;7.95;;;3.20;;
80400;SDS011;69727;53.132;8.230;2023-07-02T19:03:16;6.85;;;2.75;;
80400;SDS011;69727;53.132;8.230;2023-07-02T19:06:53;6.57;;;2.90;;
80400;SDS011;69727;53.132;8.230;2023-07-02T19:10:17;8.80;;;2.90;;
80400;SDS011;69727;53.132;8.230;2023-07-02T19:13:43;8.15;;;2.97;;
80400;SDS011;69727;53.132;8.230;2023-07-02T19:17:08;5.68;;;2.78;;
80400;SDS011;69727;53.132;8.230;2023-07-02T19:20:43;8.32;;;3.30;;
80400;SDS011;69727;53.132;8.230;2023-07-02T19:24:08;8.85;;;3.13;;
80400;SDS011;69727;53.132;8.230;2023-07-02T19:27:35;7.13;;;2.70;;
80400;SDS011;69727;53.132;8.230;2023-07-02T19:31:00;8.98;;;3.13;;
80400;SDS011;69727;53.132;8.230;2023-07-02T19:34:24;6.63;;;2.72;;
80400;SDS011;69727;53.132;8.230;2023-07-02T19:37:50;8.00;;;3.25;;
80400;SDS011;69727;53.132;8.230;2023-07-02T19:41:14;9.73;;;3.08;;
80400;SDS011;69727;53.132;8.230;2023-07-02T19:44:40;6.65;;;3.13;;
80400;SDS011;69727;53.132;8.230;2023-07-02T19:48:04;10.23;;;2.75;;
80400;SDS011;69727;53.132;8.230;2023-07-02T19:51:29;7.47;;;2.50;;
80400;SDS011;69727;53.132;8.230;2023-07-02T19:55:01;7.30;;;3.08;;
80400;SDS011;69727;53.132;8.230;2023-07-02T19:58:36;8.85;;;2.90;;
80400;SDS011;69727;53.132;8.230;2023-07-02T20:02:03;6.40;;;2.80;;
80400;SDS011;69727;53.132;8.230;2023-07-02T20:05:31;9.27;;;3.35;;
80400;SDS011;69727;53.132;8.230;2023-07-02T20:08:58;8.63;;;3.15;;
80400;SDS011;69727;53.132;8.230;2023-07-02T20:12:29;7.10;;;3.05;;
80400;SDS011;69727;53.132;8.230;2023-07-02T20:15:56;9.20;;;3.22;;
80400;SDS011;69727;53.132;8.230;2023-07-02T20:19:36;8.05;;;3.00;;
80400;SDS011;69727;53.132;8.230;2023-07-02T20:23:04;9.38;;;3.28;;
80400;SDS011;69727;53.132;8.230;2023-07-02T20:26:57;6.95;;;3.22;;
80400;SDS011;69727;53.132;8.230;2023-07-02T20:30:21;8.05;;;3.50;;
80400;SDS011;69727;53.132;8.230;2023-07-02T20:33:45;8.18;;;3.63;;
80400;SDS011;69727;53.132;8.230;2023-07-02T20:37:12;10.68;;;3.97;;
80400;SDS011;69727;53.132;8.230;2023-07-02T20:40:38;10.57;;;3.50;;